createdAt,value
2022-11-23T00:00:24.875Z,80.42
2022-11-23T00:02:55.844Z,78.62
2022-11-23T00:05:23.116Z,81.73
2022-11-23T00:07:50.363Z,80.50
2022-11-23T00:10:17.855Z,81.75
2022-11-23T00:12:45.127Z,81.68
2022-11-23T00:15:13.040Z,82.16
2022-11-23T00:17:40.575Z,81.87
2022-11-23T00:20:08.424Z,83.09
2022-11-23T00:22:35.721Z,82.81
2022-11-23T00:25:03.372Z,80.42
2022-11-23T00:27:30.601Z,81.75
2022-11-23T00:29:57.771Z,82.34
2022-11-23T00:32:25.691Z,80.32
2022-11-23T00:34:52.912Z,79.71
2022-11-23T00:37:20.101Z,79.93
2022-11-23T00:39:47.590Z,81.56
2022-11-23T00:42:14.794Z,78.92
2022-11-23T00:44:41.989Z,80.45
2022-11-23T00:47:09.458Z,80.29
2022-11-23T00:49:36.633Z,80.57
2022-11-23T00:52:03.901Z,81.12
2022-11-23T00:54:31.707Z,79.97
2022-11-23T00:56:58.909Z,81.28
2022-11-23T00:59:26.209Z,80.37
2022-11-23T01:01:54.386Z,78.71
2022-11-23T01:04:21.613Z,80.38
2022-11-23T01:06:48.848Z,78.92
2022-11-23T01:09:17.928Z,78.74
2022-11-23T01:11:45.224Z,80.03
2022-11-23T01:14:12.509Z,80.06
2022-11-23T01:16:40.577Z,80.16
2022-11-23T01:19:11.547Z,80.14
2022-11-23T01:21:39.375Z,78.54
2022-11-23T01:24:12.257Z,80.99
2022-11-23T01:26:41.135Z,79.74
2022-11-23T01:29:08.693Z,82.42
2022-11-23T01:31:41.810Z,80.58
2022-11-23T01:34:14.552Z,80.47
2022-11-23T01:36:41.960Z,80.74
2022-11-23T01:39:10.364Z,80.46
2022-11-23T01:41:39.268Z,78.29
2022-11-23T01:44:21.627Z,78.77
2022-11-23T01:46:53.108Z,79.63
2022-11-23T01:49:20.420Z,78.43
2022-11-23T01:51:48.613Z,79.23
2022-11-23T01:54:22.551Z,77.89
2022-11-23T01:56:51.129Z,79.08
2022-11-23T01:59:18.876Z,78.89
2022-11-23T02:01:46.170Z,79.54
2022-11-23T02:04:16.654Z,79.84
2022-11-23T02:06:45.167Z,78.77
2022-11-23T02:09:12.362Z,79.63
2022-11-23T02:11:39.909Z,79.95
2022-11-23T02:14:07.400Z,80.52
2022-11-23T02:16:34.615Z,81.62
2022-11-23T02:19:01.802Z,80.51
2022-11-23T02:21:29.396Z,81.56
2022-11-23T02:24:09.047Z,79.78
2022-11-23T02:26:37.118Z,80.25
2022-11-23T02:29:12.188Z,81.60
2022-11-23T02:31:39.688Z,80.71
2022-11-23T02:34:06.966Z,79.81
2022-11-23T02:36:39.903Z,79.90
2022-11-23T02:39:08.971Z,82.43
2022-11-23T02:41:37.546Z,80.87
2022-11-23T02:44:04.845Z,79.93
2022-11-23T02:46:32.293Z,80.02
2022-11-23T02:48:59.494Z,79.73
2022-11-23T02:51:27.645Z,81.07
2022-11-23T02:53:55.104Z,80.50
2022-11-23T02:56:22.306Z,80.53
2022-11-23T02:58:49.691Z,81.68
2022-11-23T03:01:18.318Z,81.31
2022-11-23T03:03:46.698Z,79.50
2022-11-23T03:06:14.020Z,79.59
2022-11-23T03:08:41.889Z,78.99
2022-11-23T03:11:09.471Z,79.79
2022-11-23T03:13:36.674Z,80.94
2022-11-23T03:16:04.314Z,79.57
2022-11-23T03:18:31.570Z,80.95
2022-11-23T03:21:05.369Z,81.06
2022-11-23T03:23:32.846Z,80.68
2022-11-23T03:26:00.930Z,80.35
2022-11-23T03:28:28.558Z,79.81
2022-11-23T03:30:56.578Z,79.06
2022-11-23T03:33:24.242Z,79.85
2022-11-23T03:35:52.032Z,78.78
2022-11-23T03:38:19.749Z,81.42
2022-11-23T03:40:47.060Z,81.09
2022-11-23T03:43:14.420Z,82.33
2022-11-23T03:45:42.416Z,81.46
2022-11-23T03:48:09.599Z,79.50
2022-11-23T03:50:36.823Z,79.81
2022-11-23T03:53:04.388Z,79.51
2022-11-23T03:55:31.978Z,78.61
2022-11-23T03:57:59.761Z,78.18
2022-11-23T04:00:27.946Z,80.67
2022-11-23T04:02:55.479Z,79.93
2022-11-23T04:05:27.039Z,79.31
2022-11-23T04:08:01.008Z,79.91
2022-11-23T04:10:28.324Z,77.65
2022-11-23T04:12:58.488Z,77.63
2022-11-23T04:15:25.949Z,76.24
2022-11-23T04:17:54.077Z,77.40
2022-11-23T04:20:21.247Z,78.41
2022-11-23T04:22:49.002Z,78.59
2022-11-23T04:25:16.533Z,80.74
2022-11-23T04:27:43.775Z,80.71
2022-11-23T04:30:11.536Z,79.64
2022-11-23T04:32:38.863Z,79.20
2022-11-23T04:35:06.201Z,81.70
2022-11-23T04:37:33.942Z,80.26
2022-11-23T04:40:01.833Z,79.86
2022-11-23T04:42:29.927Z,79.70
2022-11-23T04:44:58.027Z,80.72
2022-11-23T04:47:25.455Z,80.35
2022-11-23T04:49:53.091Z,80.58
2022-11-23T04:52:20.599Z,80.59
2022-11-23T04:54:47.865Z,80.84
2022-11-23T04:57:15.259Z,80.88
2022-11-23T04:59:42.907Z,79.43
2022-11-23T05:02:10.386Z,78.93
2022-11-23T05:04:38.292Z,79.05
2022-11-23T05:07:06.034Z,77.67
2022-11-23T05:09:34.657Z,76.73
2022-11-23T05:12:02.375Z,77.60
2022-11-23T05:14:31.791Z,79.27
2022-11-23T05:16:59.140Z,79.87
2022-11-23T05:19:26.509Z,79.38
2022-11-23T05:21:54.196Z,79.89
2022-11-23T05:24:22.713Z,81.69
2022-11-23T05:26:56.086Z,79.13
2022-11-23T05:29:23.937Z,80.03
2022-11-23T05:31:51.240Z,80.22
2022-11-23T05:34:18.590Z,78.38
2022-11-23T05:36:46.124Z,78.31
2022-11-23T05:39:13.761Z,79.80
2022-11-23T05:41:41.028Z,79.60
2022-11-23T05:44:09.326Z,78.71
2022-11-23T05:46:36.530Z,78.04
2022-11-23T05:49:03.746Z,76.89
2022-11-23T05:51:33.040Z,76.56
2022-11-23T05:54:01.213Z,75.70
2022-11-23T05:56:28.923Z,75.62
2022-11-23T05:58:56.838Z,76.42
2022-11-23T06:01:24.237Z,77.17
2022-11-23T06:03:53.048Z,76.33
2022-11-23T06:06:20.477Z,75.29
2022-11-23T06:08:49.191Z,76.31
2022-11-23T06:11:17.147Z,76.55
2022-11-23T06:13:46.559Z,76.33
2022-11-23T06:16:13.760Z,76.56
2022-11-23T06:18:42.477Z,75.32
2022-11-23T06:21:09.885Z,75.97
2022-11-23T06:23:37.986Z,77.11
2022-11-23T06:26:06.434Z,76.41
2022-11-23T06:28:35.979Z,78.16
2022-11-23T06:31:04.098Z,76.02
2022-11-23T06:33:31.719Z,75.73
2022-11-23T06:36:00.355Z,76.71
2022-11-23T06:38:29.013Z,77.38
2022-11-23T06:41:00.318Z,79.45
2022-11-23T06:43:28.309Z,79.15
2022-11-23T06:45:55.621Z,78.72
2022-11-23T06:48:23.581Z,79.40
2022-11-23T06:50:51.159Z,78.99
2022-11-23T06:53:18.872Z,78.17
2022-11-23T06:55:46.407Z,79.20
2022-11-23T06:58:13.917Z,77.92
2022-11-23T07:00:41.202Z,77.23
2022-11-23T07:03:24.754Z,76.52
2022-11-23T07:05:52.852Z,77.36
2022-11-23T07:08:20.926Z,76.12
2022-11-23T07:10:48.137Z,75.25
2022-11-23T07:13:15.820Z,76.12
2022-11-23T07:15:43.453Z,76.33
2022-11-23T07:18:11.171Z,77.13
2022-11-23T07:20:40.087Z,77.30
2022-11-23T07:23:08.354Z,76.50
2022-11-23T07:25:36.061Z,77.79
2022-11-23T07:28:04.044Z,78.35
2022-11-23T07:30:32.494Z,76.99
2022-11-23T07:33:03.534Z,77.28
2022-11-23T07:35:32.807Z,77.37
2022-11-23T07:38:00.446Z,77.41
2022-11-23T07:40:27.779Z,76.80
2022-11-23T07:43:01.435Z,76.84
2022-11-23T07:45:29.276Z,78.75
2022-11-23T07:48:00.540Z,76.77
2022-11-23T07:50:28.263Z,76.13
2022-11-23T07:52:55.799Z,77.56
2022-11-23T07:55:23.471Z,77.20
2022-11-23T07:57:54.359Z,78.52
2022-11-23T08:00:22.272Z,80.33
2022-11-23T08:03:19.236Z,78.61
2022-11-23T08:05:37.060Z,77.44
2022-11-23T08:08:04.656Z,75.54
2022-11-23T08:10:31.883Z,76.16
2022-11-23T08:13:03.454Z,74.89
2022-11-23T08:15:30.979Z,74.00
2022-11-23T08:17:58.661Z,74.87
2022-11-23T08:20:26.138Z,73.28
2022-11-23T08:22:55.917Z,74.14
2022-11-23T08:25:23.703Z,72.59
2022-11-23T08:27:57.736Z,72.83
2022-11-23T08:30:25.367Z,72.16
2022-11-23T08:32:52.759Z,72.59
2022-11-23T08:35:20.338Z,71.81
2022-11-23T08:37:47.811Z,74.04
2022-11-23T08:40:17.408Z,74.66
2022-11-23T08:42:47.171Z,76.12
2022-11-23T08:45:14.662Z,74.31
2022-11-23T08:47:41.814Z,73.68
2022-11-23T08:50:09.297Z,74.86
2022-11-23T08:52:36.800Z,74.18
2022-11-23T08:55:04.288Z,73.17
2022-11-23T08:57:31.571Z,73.68
2022-11-23T08:59:59.016Z,75.59
2022-11-23T09:02:26.231Z,74.96
2022-11-23T09:04:53.461Z,74.48
2022-11-23T09:07:21.063Z,75.02
2022-11-23T09:09:48.304Z,73.37
2022-11-23T09:12:15.508Z,72.53
2022-11-23T09:14:43.332Z,71.41
2022-11-23T09:17:10.538Z,69.82
2022-11-23T09:19:37.747Z,71.86
2022-11-23T09:22:05.238Z,72.61
2022-11-23T09:24:32.812Z,72.77
2022-11-23T09:27:00.270Z,71.20
2022-11-23T09:29:28.443Z,73.73
2022-11-23T09:31:55.762Z,72.57
2022-11-23T09:34:23.162Z,73.30
2022-11-23T09:36:50.660Z,72.64
2022-11-23T09:39:17.879Z,72.43
2022-11-23T09:42:03.758Z,71.46
2022-11-23T09:44:33.868Z,69.96
2022-11-23T09:47:01.391Z,70.28
2022-11-23T09:49:31.539Z,69.46
2022-11-23T09:51:59.027Z,72.27
2022-11-23T09:54:33.471Z,69.03
2022-11-23T09:57:02.107Z,68.43
2022-11-23T09:59:32.559Z,70.02
2022-11-23T10:01:59.851Z,70.78
2022-11-23T10:04:29.351Z,69.77
2022-11-23T10:07:18.792Z,70.71
2022-11-23T10:10:05.253Z,70.79
2022-11-23T10:12:51.501Z,69.98
2022-11-23T10:15:19.056Z,69.51
2022-11-23T10:17:56.708Z,68.61
2022-11-23T10:20:42.962Z,68.70
2022-11-23T10:23:14.271Z,69.18
2022-11-23T10:25:47.005Z,71.79
2022-11-23T10:28:15.129Z,71.92
2022-11-23T10:30:43.280Z,71.13
2022-11-23T10:33:19.536Z,69.21
2022-11-23T10:35:47.046Z,69.62
2022-11-23T10:38:19.364Z,69.77
2022-11-23T10:40:55.297Z,69.45
2022-11-23T10:43:23.377Z,70.75
2022-11-23T10:45:53.649Z,70.02
2022-11-23T10:48:35.886Z,68.62
2022-11-23T10:51:24.145Z,68.81
2022-11-23T10:53:57.648Z,72.86
2022-11-23T10:56:28.595Z,72.12
2022-11-23T10:58:55.940Z,72.61
2022-11-23T11:01:24.534Z,72.77
2022-11-23T11:03:55.605Z,70.99
2022-11-23T11:06:27.057Z,69.98
2022-11-23T11:08:55.414Z,71.26
2022-11-23T11:11:29.429Z,70.53
2022-11-23T11:14:16.453Z,69.94
2022-11-23T11:16:50.408Z,72.00
2022-11-23T11:19:36.202Z,70.36
2022-11-23T11:22:22.235Z,69.22
2022-11-23T11:24:49.681Z,69.30
2022-11-23T11:27:17.745Z,69.89
2022-11-23T11:29:44.962Z,69.40
2022-11-23T11:32:27.884Z,70.19
2022-11-23T11:35:01.139Z,68.83
2022-11-23T11:37:39.352Z,68.53
2022-11-23T11:40:25.438Z,67.26
2022-11-23T11:43:06.229Z,68.18
2022-11-23T11:45:36.822Z,67.39
2022-11-23T11:48:23.513Z,67.21
2022-11-23T11:50:57.417Z,66.34
2022-11-23T11:53:28.866Z,69.17
2022-11-23T11:55:57.680Z,67.77
2022-11-23T11:58:26.371Z,65.42
2022-11-23T12:01:07.646Z,64.69
2022-11-23T12:03:35.159Z,65.47
2022-11-23T12:06:13.558Z,65.46
2022-11-23T12:08:44.858Z,64.97
2022-11-23T12:11:12.105Z,65.53
2022-11-23T12:13:40.647Z,65.71
2022-11-23T12:16:08.151Z,67.11
2022-11-23T12:19:07.958Z,65.29
2022-11-23T12:21:41.448Z,64.08
2022-11-23T12:24:12.936Z,63.63
2022-11-23T12:26:55.795Z,64.60
2022-11-23T12:29:41.959Z,64.23
2022-11-23T12:32:28.280Z,63.96
2022-11-23T12:35:05.273Z,63.17
2022-11-23T12:37:41.802Z,62.59
2022-11-23T12:40:14.800Z,63.58
2022-11-23T12:42:43.047Z,62.75
2022-11-23T12:45:13.360Z,62.87
2022-11-23T12:47:49.803Z,62.18
2022-11-23T12:50:17.741Z,60.62
2022-11-23T12:53:03.576Z,61.25
2022-11-23T12:55:31.059Z,64.48
2022-11-23T12:58:16.937Z,62.71
2022-11-23T13:00:49.186Z,61.74
2022-11-23T13:03:39.722Z,64.96
2022-11-23T13:06:07.164Z,62.45
2022-11-23T13:08:53.123Z,61.51
2022-11-23T13:11:34.441Z,62.86
2022-11-23T13:14:10.693Z,64.05
2022-11-23T13:16:41.319Z,62.76
2022-11-23T13:19:17.856Z,62.34
2022-11-23T13:21:46.057Z,63.10
2022-11-23T13:24:25.547Z,61.28
2022-11-23T13:27:31.518Z,60.22
2022-11-23T13:30:01.251Z,60.30
2022-11-23T13:32:39.349Z,58.51
2022-11-23T13:35:18.808Z,58.19
2022-11-23T13:38:00.249Z,61.11
2022-11-23T13:40:27.452Z,59.66
2022-11-23T13:43:02.094Z,59.46
2022-11-23T13:45:31.100Z,59.30
2022-11-23T13:48:04.764Z,59.23
2022-11-23T13:50:32.142Z,58.13
2022-11-23T13:52:59.718Z,60.24
2022-11-23T13:55:39.224Z,59.67
2022-11-23T13:58:22.730Z,59.53
2022-11-23T14:00:57.133Z,60.24
2022-11-23T14:03:49.306Z,59.51
2022-11-23T14:06:29.032Z,59.74
2022-11-23T14:08:59.848Z,57.98
2022-11-23T14:11:27.086Z,58.56
2022-11-23T14:13:55.947Z,58.29
2022-11-23T14:16:33.361Z,55.87
2022-11-23T14:19:19.390Z,55.61
2022-11-23T14:21:52.710Z,55.37
2022-11-23T14:24:38.824Z,54.58
2022-11-23T14:27:45.762Z,54.76
2022-11-23T14:30:25.041Z,55.18
2022-11-23T14:33:03.612Z,54.79
2022-11-23T14:35:50.075Z,54.57
2022-11-23T14:38:33.820Z,54.70
2022-11-23T14:41:13.150Z,55.39
2022-11-23T14:43:41.438Z,54.73
2022-11-23T14:46:14.170Z,54.44
2022-11-23T14:48:41.820Z,54.20
2022-11-23T14:51:12.982Z,53.98
2022-11-23T14:53:58.926Z,54.29
2022-11-23T14:56:33.186Z,55.25
2022-11-23T14:59:17.659Z,54.31
2022-11-23T15:01:51.870Z,54.77
2022-11-23T15:04:25.484Z,54.39
2022-11-23T15:06:54.343Z,54.17
2022-11-23T15:09:27.581Z,53.99
2022-11-23T15:12:05.669Z,54.26
2022-11-23T15:14:33.404Z,53.52
2022-11-23T15:17:14.963Z,53.72
2022-11-23T15:19:42.865Z,53.32
2022-11-23T15:22:16.735Z,52.83
2022-11-23T15:24:43.970Z,53.17
2022-11-23T15:27:15.292Z,53.22
2022-11-23T15:29:53.024Z,52.23
2022-11-23T15:32:30.723Z,52.14
2022-11-23T15:35:00.220Z,52.30
2022-11-23T15:37:27.748Z,52.84
2022-11-23T15:39:55.191Z,52.88
2022-11-23T15:42:22.892Z,52.79
2022-11-23T15:44:52.011Z,52.85
2022-11-23T15:47:27.550Z,53.00
2022-11-23T15:49:58.766Z,52.63
2022-11-23T15:52:27.123Z,52.36
2022-11-23T15:54:54.640Z,51.57
2022-11-23T15:57:22.750Z,51.44
2022-11-23T15:59:59.467Z,51.30
2022-11-23T16:02:28.906Z,51.32
2022-11-23T16:05:05.713Z,51.96
2022-11-23T16:07:33.068Z,52.35
2022-11-23T16:10:19.276Z,52.91
2022-11-23T16:12:50.650Z,52.36
2022-11-23T16:15:41.540Z,52.46
2022-11-23T16:18:17.706Z,51.90
2022-11-23T16:20:45.556Z,51.99
2022-11-23T16:23:14.691Z,52.65
2022-11-23T16:25:41.970Z,52.19
2022-11-23T16:28:22.324Z,51.92
2022-11-23T16:30:49.622Z,52.39
2022-11-23T16:33:17.554Z,54.12
2022-11-23T16:35:45.376Z,53.16
2022-11-23T16:38:12.816Z,52.89
2022-11-23T16:40:40.658Z,52.99
2022-11-23T16:43:09.053Z,52.14
2022-11-23T16:45:37.172Z,53.55
2022-11-23T16:48:06.519Z,53.52
2022-11-23T16:50:34.272Z,53.66
2022-11-23T16:53:02.331Z,52.79
2022-11-23T16:55:29.909Z,52.09
2022-11-23T16:57:57.311Z,52.94
2022-11-23T17:00:24.628Z,53.69
2022-11-23T17:02:52.421Z,54.77
2022-11-23T17:05:20.215Z,53.70
2022-11-23T17:07:47.476Z,52.00
2022-11-23T17:10:15.098Z,52.55
2022-11-23T17:12:52.484Z,53.24
2022-11-23T17:15:20.467Z,52.64
2022-11-23T17:17:47.707Z,54.11
2022-11-23T17:20:15.451Z,53.01
2022-11-23T17:22:43.447Z,52.74
2022-11-23T17:25:15.056Z,51.97
2022-11-23T17:27:44.971Z,51.64
2022-11-23T17:30:17.420Z,52.55
2022-11-23T17:32:45.023Z,52.51
2022-11-23T17:35:12.402Z,52.42
2022-11-23T17:37:39.680Z,52.13
2022-11-23T17:40:16.887Z,51.85
2022-11-23T17:42:44.304Z,51.53
2022-11-23T17:45:12.398Z,51.66
2022-11-23T17:47:39.832Z,52.05
2022-11-23T17:50:07.568Z,52.60
2022-11-23T17:52:35.066Z,52.60
2022-11-23T17:55:02.295Z,51.70
2022-11-23T17:57:29.567Z,53.56
2022-11-23T18:00:01.874Z,53.56
2022-11-23T18:02:39.059Z,53.57
2022-11-23T18:05:06.882Z,52.66
2022-11-23T18:07:34.240Z,52.08
2022-11-23T18:10:01.844Z,52.51
2022-11-23T18:12:29.374Z,51.91
2022-11-23T18:14:56.866Z,52.22
2022-11-23T18:17:24.308Z,52.35
2022-11-23T18:19:51.921Z,51.33
2022-11-23T18:22:19.235Z,51.92
2022-11-23T18:24:46.458Z,50.88
2022-11-23T18:27:13.960Z,51.37
2022-11-23T18:29:41.295Z,51.26
2022-11-23T18:32:08.974Z,51.08
2022-11-23T18:34:36.733Z,51.26
2022-11-23T18:37:05.445Z,51.08
2022-11-23T18:39:33.056Z,50.74
2022-11-23T18:42:05.510Z,51.42
2022-11-23T18:44:33.319Z,51.32
2022-11-23T18:47:01.000Z,51.41
2022-11-23T18:49:28.404Z,50.86
2022-11-23T18:51:55.831Z,50.64
2022-11-23T18:54:23.482Z,50.22
2022-11-23T18:56:50.680Z,50.69
2022-11-23T18:59:56.294Z,50.79
2022-11-23T19:02:08.959Z,51.43
2022-11-23T19:04:36.478Z,51.05
2022-11-23T19:07:03.709Z,50.72
2022-11-23T19:09:31.463Z,50.63
2022-11-23T19:11:59.141Z,50.65
2022-11-23T19:14:26.407Z,50.55
2022-11-23T19:16:54.084Z,50.51
2022-11-23T19:19:21.540Z,50.84
2022-11-23T19:21:48.884Z,50.79
2022-11-23T19:24:16.354Z,50.67
2022-11-23T19:26:43.695Z,51.15
2022-11-23T19:29:11.100Z,51.34
2022-11-23T19:31:38.828Z,51.28
2022-11-23T19:34:06.377Z,50.54
2022-11-23T19:36:36.429Z,50.45
2022-11-23T19:39:05.093Z,50.16
2022-11-23T19:41:32.345Z,50.11
2022-11-23T19:44:00.069Z,50.76
2022-11-23T19:46:28.044Z,50.68
2022-11-23T19:48:57.351Z,50.58
2022-11-23T19:51:25.052Z,51.08
2022-11-23T19:53:54.717Z,51.63
2022-11-23T19:56:24.196Z,51.14
2022-11-23T19:58:52.254Z,51.43
2022-11-23T20:01:20.748Z,52.13
2022-11-23T20:03:49.104Z,51.86
2022-11-23T20:06:17.451Z,52.58
2022-11-23T20:08:44.933Z,52.13
2022-11-23T20:11:13.680Z,51.68
2022-11-23T20:13:41.117Z,52.66
2022-11-23T20:16:12.888Z,53.38
2022-11-23T20:18:43.924Z,52.95
2022-11-23T20:21:17.796Z,52.78
2022-11-23T20:23:45.771Z,52.80
2022-11-23T20:26:14.682Z,54.24
2022-11-23T20:28:42.398Z,53.21
2022-11-23T20:31:20.143Z,54.14
2022-11-23T20:33:50.630Z,55.05
2022-11-23T20:36:19.528Z,54.28
2022-11-23T20:38:47.181Z,54.08
2022-11-23T20:41:15.391Z,54.36
2022-11-23T20:43:43.149Z,53.91
2022-11-23T20:46:10.665Z,54.05
2022-11-23T20:48:39.302Z,54.44
2022-11-23T20:51:10.379Z,54.62
2022-11-23T20:53:38.306Z,54.38
2022-11-23T20:56:06.594Z,54.23
2022-11-23T20:58:35.140Z,54.83
2022-11-23T21:01:13.421Z,55.13
2022-11-23T21:03:41.415Z,55.51
2022-11-23T21:06:10.730Z,56.00
2022-11-23T21:08:38.188Z,56.27
2022-11-23T21:11:32.112Z,55.87
2022-11-23T21:14:15.608Z,57.33
2022-11-23T21:16:55.751Z,56.21
2022-11-23T21:19:24.090Z,55.87
2022-11-23T21:21:51.843Z,56.11
2022-11-23T21:24:19.064Z,56.06
2022-11-23T21:26:46.439Z,56.13
2022-11-23T21:29:14.156Z,55.68
2022-11-23T21:31:42.149Z,55.86
2022-11-23T21:34:12.292Z,55.30
2022-11-23T21:36:39.836Z,57.13
2022-11-23T21:39:07.909Z,56.78
2022-11-23T21:41:35.644Z,56.29
2022-11-23T21:44:03.652Z,56.17
2022-11-23T21:46:30.937Z,55.83
2022-11-23T21:48:58.662Z,55.52
2022-11-23T21:51:27.017Z,55.95
2022-11-23T21:53:54.704Z,56.71
2022-11-23T21:56:22.077Z,56.18
2022-11-23T21:58:49.740Z,55.56
2022-11-23T22:01:17.005Z,55.27
2022-11-23T22:03:45.879Z,56.15
2022-11-23T22:06:20.001Z,56.41
2022-11-23T22:08:52.165Z,56.08
2022-11-23T22:11:21.799Z,55.64
2022-11-23T22:13:52.866Z,56.71
2022-11-23T22:16:21.006Z,56.16
2022-11-23T22:18:54.019Z,56.73
2022-11-23T22:21:23.475Z,56.21
2022-11-23T22:23:51.005Z,56.40
2022-11-23T22:26:19.006Z,56.71
2022-11-23T22:28:47.169Z,56.68
2022-11-23T22:31:15.591Z,57.65
2022-11-23T22:33:43.171Z,57.60
2022-11-23T22:36:14.662Z,56.59
2022-11-23T22:38:42.212Z,56.42
2022-11-23T22:41:10.286Z,56.58
2022-11-23T22:43:37.790Z,56.74
2022-11-23T22:46:09.936Z,57.58
2022-11-23T22:48:37.724Z,57.72
2022-11-23T22:51:05.278Z,57.97
2022-11-23T22:53:33.001Z,58.39
2022-11-23T22:56:04.689Z,57.40
2022-11-23T22:58:32.412Z,57.50
2022-11-23T23:01:06.782Z,56.72
2022-11-23T23:03:34.481Z,57.92
2022-11-23T23:06:02.230Z,57.21
2022-11-23T23:08:29.699Z,57.60
2022-11-23T23:10:57.300Z,57.03
2022-11-23T23:13:24.590Z,57.47
2022-11-23T23:15:59.585Z,56.59
2022-11-23T23:18:27.237Z,57.28
2022-11-23T23:21:04.168Z,56.76
2022-11-23T23:23:33.284Z,57.81
2022-11-23T23:26:00.517Z,57.97
2022-11-23T23:28:27.785Z,57.35
2022-11-23T23:31:01.964Z,57.99
2022-11-23T23:33:29.773Z,58.23
2022-11-23T23:35:57.355Z,58.33
2022-11-23T23:38:27.634Z,57.89
2022-11-23T23:40:55.689Z,57.05
2022-11-23T23:43:23.361Z,57.77
2022-11-23T23:45:50.873Z,57.61
2022-11-23T23:48:18.339Z,58.52
2022-11-23T23:50:45.828Z,58.23
2022-11-23T23:53:13.053Z,57.88
2022-11-23T23:55:40.313Z,57.99
2022-11-23T23:58:10.514Z,57.86
